createdAt,value
2019-01-14T00:01:18.044Z,2.27
2019-01-14T00:03:57.799Z,1.70
2019-01-14T00:06:34.253Z,2.07
2019-01-14T00:09:10.995Z,1.37
2019-01-14T00:11:41.520Z,2.03
2019-01-14T00:14:11.890Z,1.40
2019-01-14T00:16:54.534Z,1.30
2019-01-14T00:19:26.723Z,1.80
2019-01-14T00:22:03.036Z,1.63
2019-01-14T00:24:34.421Z,1.50
2019-01-14T00:27:25.863Z,1.50
2019-01-14T00:29:59.109Z,1.27
2019-01-14T00:32:31.143Z,1.10
2019-01-14T00:35:05.080Z,1.20
2019-01-14T00:37:45.665Z,1.97
2019-01-14T00:40:21.789Z,1.30
2019-01-14T00:42:52.282Z,1.30
2019-01-14T00:45:22.624Z,1.47
2019-01-14T00:47:53.543Z,1.60
2019-01-14T00:50:25.447Z,1.50
2019-01-14T00:52:55.929Z,1.40
2019-01-14T00:55:27.561Z,1.70
2019-01-14T00:57:58.032Z,1.77
2019-01-14T01:00:28.709Z,1.70
2019-01-14T01:03:01.916Z,2.07
2019-01-14T01:05:39.904Z,1.93
2019-01-14T01:08:16.707Z,1.43
2019-01-14T01:10:52.463Z,1.60
2019-01-14T01:13:22.911Z,1.80
2019-01-14T01:15:56.367Z,1.50
2019-01-14T01:18:26.783Z,2.20
2019-01-14T01:21:02.551Z,1.60
2019-01-14T01:23:38.211Z,1.87
2019-01-14T01:26:10.906Z,1.70
2019-01-14T01:28:51.344Z,1.77
2019-01-14T01:31:21.671Z,2.17
2019-01-14T01:33:55.230Z,1.90
2019-01-14T01:36:31.866Z,2.40
2019-01-14T01:39:09.762Z,2.17
2019-01-14T01:41:43.243Z,2.10
2019-01-14T01:44:16.754Z,2.47
2019-01-14T01:46:50.562Z,2.17
2019-01-14T01:49:27.281Z,2.57
2019-01-14T01:51:57.585Z,2.47
2019-01-14T01:54:30.634Z,3.00
2019-01-14T01:57:01.269Z,2.50
2019-01-14T01:59:34.855Z,2.83
2019-01-14T02:02:05.388Z,2.90
2019-01-14T02:04:36.072Z,3.00
2019-01-14T02:07:09.488Z,2.93
2019-01-14T02:09:42.384Z,2.87
2019-01-14T02:12:15.715Z,2.73
2019-01-14T02:14:46.379Z,2.70
2019-01-14T02:17:16.958Z,2.70
2019-01-14T02:19:49.228Z,2.87
2019-01-14T02:22:21.664Z,3.03
2019-01-14T02:24:53.749Z,3.37
2019-01-14T02:27:25.595Z,2.87
2019-01-14T02:29:59.352Z,3.40
2019-01-14T02:32:33.038Z,2.87
2019-01-14T02:35:05.408Z,2.83
2019-01-14T02:37:39.429Z,2.40
2019-01-14T02:40:15.906Z,3.37
2019-01-14T02:42:49.674Z,3.13
2019-01-14T02:45:19.983Z,3.33
2019-01-14T02:47:50.326Z,2.80
2019-01-14T02:50:22.832Z,3.33
2019-01-14T02:52:52.917Z,2.73
2019-01-14T02:55:23.520Z,3.03
2019-01-14T02:57:57.569Z,3.50
2019-01-14T03:00:28.825Z,2.97
2019-01-14T03:03:01.771Z,3.10
2019-01-14T03:05:33.743Z,3.77
2019-01-14T03:08:04.204Z,3.10
2019-01-14T03:10:34.488Z,3.50
2019-01-14T03:13:05.209Z,3.37
2019-01-14T03:15:37.101Z,3.40
2019-01-14T03:18:07.657Z,3.17
2019-01-14T03:20:38.049Z,3.53
2019-01-14T03:23:08.461Z,3.10
2019-01-14T03:25:38.874Z,4.57
2019-01-14T03:28:12.458Z,3.27
2019-01-14T03:30:42.863Z,3.73
2019-01-14T03:33:13.181Z,3.73
2019-01-14T03:35:43.702Z,3.57
2019-01-14T03:38:15.323Z,3.50
2019-01-14T03:40:46.941Z,4.43
2019-01-14T03:43:17.314Z,3.80
2019-01-14T03:45:51.047Z,2.67
2019-01-14T03:48:21.965Z,2.77
2019-01-14T03:50:54.841Z,4.00
2019-01-14T03:53:25.287Z,4.17
2019-01-14T03:55:55.599Z,4.20
2019-01-14T03:58:32.956Z,4.67
2019-01-14T04:01:04.162Z,3.67
2019-01-14T04:03:34.419Z,3.37
2019-01-14T04:06:04.990Z,3.53
2019-01-14T04:08:37.538Z,3.53
2019-01-14T04:11:08.173Z,4.33
2019-01-14T04:13:41.132Z,4.30
2019-01-14T04:16:11.450Z,4.13
2019-01-14T04:18:41.792Z,4.67
2019-01-14T04:21:12.501Z,3.87
2019-01-14T04:23:44.233Z,5.20
2019-01-14T04:26:20.034Z,4.27
2019-01-14T04:28:53.254Z,3.80
2019-01-14T04:31:26.449Z,4.40
2019-01-14T04:33:56.770Z,4.30
2019-01-14T04:36:29.137Z,4.60
2019-01-14T04:38:59.967Z,3.47
2019-01-14T04:41:30.548Z,4.63
2019-01-14T04:44:00.923Z,4.87
2019-01-14T04:46:34.933Z,3.77
2019-01-14T04:49:12.208Z,3.77
2019-01-14T04:51:42.778Z,3.77
2019-01-14T04:54:14.776Z,3.87
2019-01-14T04:56:45.449Z,3.97
2019-01-14T04:59:15.858Z,4.50
2019-01-14T05:01:47.537Z,4.30
2019-01-14T05:04:20.472Z,4.40
2019-01-14T05:06:54.487Z,4.97
2019-01-14T05:09:27.773Z,4.10
2019-01-14T05:11:58.111Z,3.67
2019-01-14T05:14:28.743Z,4.30
2019-01-14T05:16:59.344Z,4.33
2019-01-14T05:19:31.677Z,4.33
2019-01-14T05:22:01.949Z,4.57
2019-01-14T05:24:32.327Z,4.20
2019-01-14T05:27:02.619Z,4.70
2019-01-14T05:29:35.966Z,4.23
2019-01-14T05:32:08.394Z,4.23
2019-01-14T05:34:39.010Z,4.60
2019-01-14T05:37:09.344Z,4.13
2019-01-14T05:39:40.233Z,4.13
2019-01-14T05:42:10.535Z,3.50
2019-01-14T05:44:40.885Z,3.80
2019-01-14T05:47:11.272Z,3.63
2019-01-14T05:49:44.988Z,4.53
2019-01-14T05:52:26.383Z,4.53
2019-01-14T05:54:57.041Z,4.73
2019-01-14T05:57:27.400Z,4.03
2019-01-14T05:59:58.043Z,3.77
2019-01-14T06:02:46.684Z,3.90
2019-01-14T06:05:34.905Z,4.77
2019-01-14T06:08:21.723Z,3.97
2019-01-14T06:11:06.024Z,3.80
2019-01-14T06:13:53.396Z,4.43
2019-01-14T06:16:24.028Z,4.63
2019-01-14T06:18:54.759Z,4.33
2019-01-14T06:21:27.838Z,4.43
2019-01-14T06:24:01.208Z,3.30
2019-01-14T06:26:31.760Z,3.97
2019-01-14T06:29:02.316Z,4.63
2019-01-14T06:31:35.018Z,4.43
2019-01-14T06:34:05.473Z,4.27
2019-01-14T06:36:36.983Z,4.50
2019-01-14T06:39:12.052Z,4.33
2019-01-14T06:41:42.518Z,4.40
2019-01-14T06:44:17.141Z,4.87
2019-01-14T06:46:50.136Z,4.73
2019-01-14T06:49:22.404Z,4.63
2019-01-14T06:51:53.286Z,3.90
2019-01-14T06:54:29.497Z,3.87
2019-01-14T06:57:00.223Z,4.33
2019-01-14T06:59:31.677Z,3.87
2019-01-14T07:02:02.256Z,3.63
2019-01-14T07:04:33.442Z,3.87
2019-01-14T07:07:05.239Z,4.43
2019-01-14T07:09:43.138Z,3.80
2019-01-14T07:12:12.565Z,3.10
2019-01-14T07:14:55.392Z,3.40
2019-01-14T07:17:32.076Z,3.07
2019-01-14T07:20:02.417Z,3.30
2019-01-14T07:22:32.988Z,3.63
2019-01-14T07:25:08.021Z,2.67
2019-01-14T07:27:42.902Z,2.90
2019-01-14T07:30:16.454Z,3.37
2019-01-14T07:32:49.187Z,2.67
2019-01-14T07:35:22.321Z,2.87
2019-01-14T07:37:55.277Z,4.03
2019-01-14T07:40:25.767Z,3.60
2019-01-14T07:42:56.145Z,2.90
2019-01-14T07:45:26.648Z,3.40
2019-01-14T07:47:57.285Z,3.30
2019-01-14T07:50:28.098Z,2.60
2019-01-14T07:52:58.449Z,3.17
2019-01-14T07:55:31.650Z,3.13
2019-01-14T07:58:03.580Z,2.80
2019-01-14T08:00:34.436Z,2.73
2019-01-14T08:03:41.726Z,2.60
2019-01-14T08:06:12.259Z,2.63
2019-01-14T08:08:48.484Z,2.60
2019-01-14T08:11:25.418Z,2.50
2019-01-14T08:13:59.053Z,2.70
2019-01-14T08:16:30.210Z,3.13
2019-01-14T08:19:07.753Z,2.77
2019-01-14T08:21:41.394Z,2.57
2019-01-14T08:24:12.964Z,2.90
2019-01-14T08:26:43.890Z,2.87
2019-01-14T08:29:19.803Z,2.10
2019-01-14T08:31:59.193Z,2.53
2019-01-14T08:34:31.384Z,2.70
2019-01-14T08:37:02.198Z,2.40
2019-01-14T08:39:32.637Z,1.93
2019-01-14T08:42:03.987Z,1.90
2019-01-14T08:44:43.925Z,2.17
2019-01-14T08:47:16.122Z,2.07
2019-01-14T08:49:49.103Z,2.73
2019-01-14T08:52:27.167Z,2.30
2019-01-14T08:55:06.151Z,2.40
2019-01-14T08:57:37.200Z,2.37
2019-01-14T09:00:16.578Z,2.40
2019-01-14T09:02:49.232Z,2.60
2019-01-14T09:05:24.658Z,2.62
2019-01-14T09:07:57.527Z,2.63
2019-01-14T09:10:30.989Z,2.20
2019-01-14T09:13:00.962Z,1.67
2019-01-14T09:15:32.021Z,2.00
2019-01-14T09:18:02.980Z,1.83
2019-01-14T09:20:33.126Z,1.63
2019-01-14T09:23:03.762Z,1.93
2019-01-14T09:25:36.726Z,2.40
2019-01-14T09:28:07.346Z,1.83
2019-01-14T09:30:40.908Z,1.73
2019-01-14T09:33:10.809Z,2.13
2019-01-14T09:35:40.970Z,2.07
2019-01-14T09:38:13.686Z,2.13
2019-01-14T09:40:47.206Z,2.30
2019-01-14T09:43:23.455Z,2.27
2019-01-14T09:46:09.652Z,2.10
2019-01-14T09:52:30.744Z,2.73
2019-01-14T09:55:05.697Z,2.40
2019-01-14T09:57:37.370Z,2.80
2019-01-14T10:00:36.420Z,2.50
2019-01-14T10:03:25.862Z,2.50
2019-01-14T10:05:56.558Z,2.70
2019-01-14T10:08:26.998Z,2.07
2019-01-14T10:10:57.784Z,2.40
2019-01-14T10:13:34.239Z,1.90
2019-01-14T10:16:37.073Z,2.43
2019-01-14T10:19:09.083Z,2.20
2019-01-14T10:21:57.534Z,2.27
2019-01-14T10:24:34.926Z,2.30
2019-01-14T10:27:07.204Z,2.03
2019-01-14T10:29:47.589Z,3.00
2019-01-14T10:32:18.281Z,2.23
2019-01-14T10:34:49.089Z,2.70
2019-01-14T10:37:22.907Z,2.13
2019-01-14T10:39:54.133Z,3.07
2019-01-14T10:42:24.809Z,2.43
2019-01-14T10:44:55.305Z,2.50
2019-01-14T10:47:27.927Z,2.80
2019-01-14T10:50:09.368Z,2.40
2019-01-14T10:52:44.852Z,2.60
2019-01-14T10:55:23.395Z,2.57
2019-01-14T10:58:03.395Z,2.73
2019-01-14T11:00:39.076Z,3.17
2019-01-14T11:03:16.208Z,2.97
2019-01-14T11:05:47.062Z,2.20
2019-01-14T11:08:23.860Z,2.20
2019-01-14T11:10:56.705Z,2.97
2019-01-14T11:13:27.195Z,2.40
2019-01-14T11:16:00.691Z,2.60
2019-01-14T11:18:31.690Z,2.53
2019-01-14T11:21:07.928Z,2.50
2019-01-14T11:23:41.535Z,2.70
2019-01-14T11:26:13.831Z,2.40
2019-01-14T11:28:45.463Z,2.23
2019-01-14T11:31:16.454Z,2.80
2019-01-14T11:33:48.838Z,2.37
2019-01-14T11:36:23.563Z,2.50
2019-01-14T11:38:55.324Z,2.60
2019-01-14T11:41:37.631Z,2.40
2019-01-14T11:44:13.316Z,2.58
2019-01-14T11:46:49.961Z,2.60
2019-01-14T11:49:28.007Z,2.67
2019-01-14T11:52:00.783Z,2.73
2019-01-14T11:54:38.917Z,3.00
2019-01-14T11:57:09.564Z,2.90
2019-01-14T11:59:42.879Z,2.30
2019-01-14T12:02:22.215Z,2.70
2019-01-14T12:06:20.224Z,2.63
2019-01-14T12:08:32.187Z,2.73
2019-01-14T12:11:10.014Z,2.37
2019-01-14T12:13:56.476Z,2.33
2019-01-14T12:16:30.599Z,2.63
2019-01-14T12:19:18.436Z,3.63
2019-01-14T12:21:51.015Z,2.77
2019-01-14T12:24:29.455Z,2.70
2019-01-14T12:27:11.229Z,2.47
2019-01-14T12:29:51.663Z,2.57
2019-01-14T12:32:28.902Z,3.10
2019-01-14T12:35:04.201Z,2.70
2019-01-14T12:37:46.458Z,5.33
2019-01-14T12:40:20.195Z,2.83
2019-01-14T12:42:58.498Z,1.77
2019-01-14T12:47:09.284Z,2.17
2019-01-14T12:54:51.547Z,2.10
2019-01-14T12:58:20.310Z,1.80
2019-01-14T13:12:27.843Z,2.50
2019-01-14T13:15:23.895Z,2.17
2019-01-14T13:18:48.540Z,2.40
2019-01-14T13:21:47.614Z,2.90
2019-01-14T13:24:22.816Z,3.10
2019-01-14T13:27:08.338Z,3.03
2019-01-14T13:29:41.067Z,1.80
2019-01-14T13:32:22.269Z,2.33
2019-01-14T13:39:52.523Z,2.50
2019-01-14T13:46:55.571Z,1.60
2019-01-14T13:49:23.811Z,2.13
2019-01-14T13:52:20.155Z,3.00
2019-01-14T13:54:59.798Z,2.20
2019-01-14T13:57:35.157Z,4.03
2019-01-14T14:00:26.080Z,2.37
2019-01-14T14:03:00.678Z,2.67
2019-01-14T14:05:39.770Z,2.20
2019-01-14T14:08:17.999Z,2.80
2019-01-14T14:10:56.907Z,1.87
2019-01-14T14:13:27.543Z,2.77
2019-01-14T14:16:01.436Z,4.13
2019-01-14T14:18:37.440Z,1.87
2019-01-14T14:21:09.995Z,1.90
2019-01-14T14:23:45.853Z,1.53
2019-01-14T14:26:34.609Z,1.43
2019-01-14T14:29:42.329Z,1.77
2019-01-14T14:32:19.371Z,2.07
2019-01-14T14:34:50.214Z,1.60
2019-01-14T14:37:20.907Z,1.40
2019-01-14T14:39:53.838Z,1.70
2019-01-14T14:42:26.325Z,1.70
2019-01-14T14:44:57.099Z,2.67
2019-01-14T14:47:31.053Z,1.83
2019-01-14T14:50:01.941Z,2.27
2019-01-14T14:52:34.619Z,3.20
2019-01-14T14:55:08.699Z,3.17
2019-01-14T14:57:54.163Z,2.70
2019-01-14T15:00:35.030Z,1.97
2019-01-14T15:03:04.647Z,1.43
2019-01-14T15:05:39.429Z,2.07
2019-01-14T15:08:25.719Z,2.77
2019-01-14T15:11:32.915Z,2.10
2019-01-14T15:19:29.581Z,2.27
2019-01-14T15:22:03.054Z,2.63
2019-01-14T15:24:33.828Z,2.43
2019-01-14T15:27:07.303Z,2.07
2019-01-14T15:30:01.248Z,2.30
2019-01-14T15:32:32.153Z,2.70
2019-01-14T15:35:08.466Z,2.53
2019-01-14T15:37:42.164Z,2.10
2019-01-14T15:40:17.559Z,2.80
2019-01-14T15:42:49.050Z,3.10
2019-01-14T15:45:28.577Z,1.80
2019-01-14T15:48:20.802Z,1.93
2019-01-14T15:51:14.558Z,2.27
2019-01-14T15:53:46.566Z,2.57
2019-01-14T15:56:23.318Z,2.00
2019-01-14T15:58:54.693Z,2.13
2019-01-14T16:01:35.541Z,2.33
2019-01-14T16:04:16.890Z,2.03
2019-01-14T16:06:56.306Z,2.60
2019-01-14T16:09:32.835Z,2.57
2019-01-14T16:12:08.325Z,2.30
2019-01-14T16:15:03.251Z,2.33
2019-01-14T16:18:13.931Z,2.43
2019-01-14T16:20:56.081Z,2.33
2019-01-14T16:24:15.096Z,2.17
2019-01-14T16:27:02.063Z,2.30
2019-01-14T16:29:37.178Z,2.30
2019-01-14T16:32:22.826Z,1.90
2019-01-14T16:36:29.876Z,1.90
2019-01-14T16:37:32.619Z,2.53
2019-01-14T16:40:07.645Z,2.27
2019-01-14T16:42:39.134Z,2.30
2019-01-14T16:45:18.448Z,2.67
2019-01-14T16:47:52.068Z,2.43
2019-01-14T16:50:28.925Z,2.43
2019-01-14T16:53:00.181Z,2.57
2019-01-14T16:55:42.097Z,2.53
2019-01-14T16:58:16.441Z,2.83
2019-01-14T17:00:49.463Z,2.00
2019-01-14T17:03:20.665Z,1.93
2019-01-14T17:05:52.115Z,2.27
2019-01-14T17:08:30.267Z,1.97
2019-01-14T17:11:01.729Z,2.10
2019-01-14T17:14:00.780Z,2.23
2019-01-14T17:16:40.793Z,1.77
2019-01-14T17:19:21.166Z,2.53
2019-01-14T17:21:51.966Z,2.40
2019-01-14T17:24:25.613Z,1.67
2019-01-14T17:26:59.445Z,2.43
2019-01-14T17:29:38.657Z,2.23
2019-01-14T17:32:12.924Z,2.27
2019-01-14T17:34:50.026Z,2.10
2019-01-14T17:37:19.689Z,2.10
2019-01-14T17:40:03.434Z,2.17
2019-01-14T17:42:48.356Z,2.23
2019-01-14T17:45:23.243Z,2.00
2019-01-14T17:47:56.658Z,2.43
2019-01-14T17:50:29.968Z,2.37
2019-01-14T17:53:14.496Z,3.40
2019-01-14T17:55:48.247Z,3.50
2019-01-14T17:58:21.401Z,2.93
2019-01-14T18:00:55.851Z,3.10
2019-01-14T18:03:29.978Z,3.10
2019-01-14T18:06:01.913Z,2.70
2019-01-14T18:08:36.676Z,3.40
2019-01-14T18:11:12.802Z,3.07
2019-01-14T18:13:43.459Z,2.00
2019-01-14T18:16:42.492Z,1.93
2019-01-14T18:19:21.240Z,2.07
2019-01-14T18:25:04.954Z,1.60
2019-01-14T18:27:54.561Z,1.97
2019-01-14T18:30:39.734Z,2.70
2019-01-14T18:33:10.831Z,1.97
2019-01-14T18:35:51.558Z,2.10
2019-01-14T18:38:48.739Z,2.20
2019-01-14T18:41:42.200Z,2.40
2019-01-14T18:44:17.605Z,2.47
2019-01-14T18:46:57.455Z,2.07
2019-01-14T18:50:02.058Z,2.00
2019-01-14T18:52:41.935Z,2.47
2019-01-14T18:55:18.668Z,2.27
2019-01-14T18:57:53.928Z,2.80
2019-01-14T19:00:29.234Z,2.30
2019-01-14T19:03:01.795Z,2.90
2019-01-14T19:05:33.746Z,3.67
2019-01-14T19:08:07.153Z,2.50
2019-01-14T19:10:41.269Z,2.20
2019-01-14T19:13:16.884Z,2.77
2019-01-14T19:15:59.245Z,2.53
2019-01-14T19:18:35.023Z,3.00
2019-01-14T19:21:11.474Z,2.40
2019-01-14T19:23:51.166Z,2.70
2019-01-14T19:26:25.115Z,2.10
2019-01-14T19:29:40.460Z,2.17
2019-01-14T19:32:17.708Z,2.30
2019-01-14T19:34:49.639Z,2.63
2019-01-14T19:37:25.878Z,2.43
2019-01-14T19:40:12.665Z,5.47
2019-01-14T19:42:58.980Z,2.37
2019-01-14T19:45:36.300Z,2.53
2019-01-14T19:48:06.677Z,2.50
2019-01-14T19:50:46.223Z,3.10
2019-01-14T19:53:19.401Z,2.83
2019-01-14T19:55:53.937Z,2.70
2019-01-14T20:01:42.337Z,2.63
2019-01-14T20:04:14.838Z,3.03
2019-01-14T20:06:49.941Z,2.37
2019-01-14T20:09:27.609Z,2.53
2019-01-14T20:11:59.631Z,2.50
2019-01-14T20:14:32.076Z,2.30
2019-01-14T20:17:10.475Z,2.00
2019-01-14T20:19:43.321Z,2.50
2019-01-14T20:22:13.898Z,2.50
2019-01-14T20:24:47.585Z,2.57
2019-01-14T20:27:30.664Z,2.33
2019-01-14T20:30:05.569Z,2.27
2019-01-14T20:35:32.036Z,2.30
2019-01-14T20:38:10.412Z,2.30
2019-01-14T20:40:41.571Z,2.33
2019-01-14T20:43:33.661Z,2.70
2019-01-14T20:46:08.390Z,2.90
2019-01-14T20:48:42.420Z,3.37
2019-01-14T20:51:13.015Z,2.73
2019-01-14T20:53:56.898Z,2.50
2019-01-14T20:56:27.882Z,2.53
2019-01-14T20:59:03.069Z,3.10
2019-01-14T21:01:37.625Z,2.50
2019-01-14T21:04:13.419Z,2.33
2019-01-14T21:06:49.615Z,2.70
2019-01-14T21:09:23.876Z,3.00
2019-01-14T21:11:57.579Z,2.80
2019-01-14T21:14:36.018Z,2.90
2019-01-14T21:17:12.471Z,2.63
2019-01-14T21:19:46.993Z,2.80
2019-01-14T21:22:21.169Z,2.20
2019-01-14T21:25:11.155Z,2.37
2019-01-14T21:28:04.744Z,2.30
2019-01-14T21:30:35.241Z,2.00
2019-01-14T21:33:05.904Z,2.67
2019-01-14T21:35:39.918Z,2.37
2019-01-14T21:38:13.007Z,3.20
2019-01-14T21:40:43.508Z,2.30
2019-01-14T21:43:14.109Z,2.40
2019-01-14T21:45:51.625Z,2.07
2019-01-14T21:48:40.409Z,2.13
2019-01-14T21:51:11.326Z,2.80
2019-01-14T21:53:42.475Z,2.40
2019-01-14T21:56:13.311Z,2.00
2019-01-14T21:59:03.867Z,2.37
2019-01-14T22:01:39.095Z,2.67
2019-01-14T22:04:09.793Z,2.43
2019-01-14T22:06:43.836Z,2.00
2019-01-14T22:09:18.525Z,3.13
2019-01-14T22:11:49.694Z,2.30
2019-01-14T22:14:24.135Z,2.07
2019-01-14T22:16:54.749Z,1.97
2019-01-14T22:19:34.377Z,2.63
2019-01-14T22:22:05.509Z,2.37
2019-01-14T22:24:37.503Z,2.00
2019-01-14T22:27:08.230Z,2.30
2019-01-14T22:29:43.452Z,2.27
2019-01-14T22:32:41.948Z,2.30
2019-01-14T22:35:14.896Z,2.13
2019-01-14T22:37:53.925Z,2.00
2019-01-14T22:40:28.173Z,2.00
2019-01-14T22:42:58.785Z,2.53
2019-01-14T22:45:40.606Z,2.40
2019-01-14T22:48:44.379Z,2.00
2019-01-14T22:51:22.844Z,2.57
2019-01-14T22:54:13.394Z,2.80
2019-01-14T22:57:23.329Z,3.13
2019-01-14T23:01:25.257Z,3.03
2019-01-14T23:03:54.846Z,2.57
2019-01-14T23:06:32.530Z,2.13
2019-01-14T23:09:14.255Z,2.23
2019-01-14T23:11:53.011Z,2.37
2019-01-14T23:14:46.704Z,1.93
2019-01-14T23:17:42.434Z,2.63
2019-01-14T23:20:25.723Z,2.23
2019-01-14T23:23:08.252Z,2.10
2019-01-14T23:25:40.022Z,2.37
2019-01-14T23:28:14.938Z,2.37
2019-01-14T23:30:46.437Z,2.60
2019-01-14T23:33:17.721Z,2.67
2019-01-14T23:35:53.642Z,2.17
2019-01-14T23:38:24.633Z,2.47
2019-01-14T23:40:55.482Z,2.60
2019-01-14T23:43:35.425Z,2.20
2019-01-14T23:46:10.407Z,2.20
2019-01-14T23:48:47.061Z,2.50
2019-01-14T23:51:44.725Z,2.20
2019-01-14T23:54:27.599Z,2.73
2019-01-14T23:57:02.489Z,2.23
2019-01-14T23:59:33.168Z,2.03
